Zanderij の空港の天気 - METARとTAF

ヨハン・ペンヘル国際空港 ( SMJP / PBM ) - スリナム Zanderij
飛行場実況気象(Metar)
観測時間08/13 17:00 SRT (08/13 20:00 UTC)
風向・風速南東 3m/s
視程10km以上
天気現象
全天の4割程度の雲 雲底高度 910m
気温32℃
湿度59%
気圧1011hPa
METARSMJP 132000Z 13005KT 9999 SCT030 32/23 Q1011 NOSIG
過去の天気等 Google飛行場航空写真 Wunderground天気予報

過去48時間のMETAR

飛行場予報(TAF)
発表時間: 8/13 13:00 SRT (8/13 16:00 UTC)
予報対象時間: 13日15時 SRT ~ 14日15時 SRT
風向・風速東南東 4m/s
視程10km以上
全天の4割程度の雲 雲底高度 760m
13日12時 SRT ~ 13日16時 SRT に一時的に
風向・風速不定 6m/s 瞬間風速 11m/s
14日5時 SRT ~ 14日8時 SRT に 確率 30% で一時的に
風向・風速不定 1m/s
視程1500m
天気現象もや
全天の4割程度の雲 雲底高度 90m
TAF SMJP 131600Z 1318/1418 12007KT 9999 SCT025 TX33/1416Z TN23/1408Z
TEMPO 1315/1319 VRB12G22KT
PROB30 TEMPO 1408/1411 VRB01KT 1500 BR SCT003